sensor_id;sensor_type;location;lat;lon;timestamp;P1;durP1;ratioP1;P2;durP2;ratioP2
15043;SDS011;7619;48.562;8.910;2024-02-15T00:01:03;3.97;;;2.73;;
15043;SDS011;7619;48.562;8.910;2024-02-15T00:03:31;2.50;;;2.30;;
15043;SDS011;7619;48.562;8.910;2024-02-15T00:05:59;3.00;;;2.20;;
15043;SDS011;7619;48.562;8.910;2024-02-15T00:08:29;3.40;;;2.57;;
15043;SDS011;7619;48.562;8.910;2024-02-15T00:10:57;2.43;;;2.13;;
15043;SDS011;7619;48.562;8.910;2024-02-15T00:13:25;3.50;;;1.87;;
15043;SDS011;7619;48.562;8.910;2024-02-15T00:15:53;3.33;;;2.40;;
15043;SDS011;7619;48.562;8.910;2024-02-15T00:18:22;3.83;;;2.10;;
15043;SDS011;7619;48.562;8.910;2024-02-15T00:20:51;3.80;;;2.00;;
15043;SDS011;7619;48.562;8.910;2024-02-15T00:23:18;2.50;;;1.97;;
15043;SDS011;7619;48.562;8.910;2024-02-15T00:25:46;3.00;;;2.10;;
15043;SDS011;7619;48.562;8.910;2024-02-15T00:28:16;3.77;;;2.67;;
15043;SDS011;7619;48.562;8.910;2024-02-15T00:30:44;3.97;;;2.30;;
15043;SDS011;7619;48.562;8.910;2024-02-15T00:33:12;3.37;;;2.13;;
15043;SDS011;7619;48.562;8.910;2024-02-15T00:35:40;2.93;;;2.33;;
15043;SDS011;7619;48.562;8.910;2024-02-15T00:38:08;3.33;;;2.37;;
15043;SDS011;7619;48.562;8.910;2024-02-15T00:40:36;2.97;;;2.27;;
15043;SDS011;7619;48.562;8.910;2024-02-15T00:43:04;2.77;;;1.80;;
15043;SDS011;7619;48.562;8.910;2024-02-15T00:45:32;3.30;;;1.67;;
15043;SDS011;7619;48.562;8.910;2024-02-15T00:48:00;2.77;;;1.90;;
15043;SDS011;7619;48.562;8.910;2024-02-15T00:50:28;1.90;;;1.63;;
15043;SDS011;7619;48.562;8.910;2024-02-15T00:52:56;2.80;;;1.70;;
15043;SDS011;7619;48.562;8.910;2024-02-15T00:55:24;3.17;;;1.60;;
15043;SDS011;7619;48.562;8.910;2024-02-15T00:57:52;2.83;;;2.07;;
15043;SDS011;7619;48.562;8.910;2024-02-15T01:00:20;1.93;;;1.73;;
15043;SDS011;7619;48.562;8.910;2024-02-15T01:02:48;2.70;;;2.50;;
15043;SDS011;7619;48.562;8.910;2024-02-15T01:05:16;1.97;;;1.70;;
15043;SDS011;7619;48.562;8.910;2024-02-15T01:07:45;2.57;;;1.93;;
15043;SDS011;7619;48.562;8.910;2024-02-15T01:10:15;3.70;;;2.07;;
15043;SDS011;7619;48.562;8.910;2024-02-15T01:12:44;2.47;;;2.00;;
15043;SDS011;7619;48.562;8.910;2024-02-15T01:15:12;3.27;;;2.07;;
15043;SDS011;7619;48.562;8.910;2024-02-15T01:17:40;3.20;;;2.43;;
15043;SDS011;7619;48.562;8.910;2024-02-15T01:20:09;2.97;;;2.27;;
15043;SDS011;7619;48.562;8.910;2024-02-15T01:22:37;3.37;;;2.23;;
15043;SDS011;7619;48.562;8.910;2024-02-15T01:25:05;3.00;;;2.23;;
15043;SDS011;7619;48.562;8.910;2024-02-15T01:27:33;4.23;;;2.47;;
15043;SDS011;7619;48.562;8.910;2024-02-15T01:30:01;5.37;;;2.40;;
15043;SDS011;7619;48.562;8.910;2024-02-15T01:32:31;2.53;;;2.23;;
15043;SDS011;7619;48.562;8.910;2024-02-15T01:34:59;2.93;;;2.33;;
15043;SDS011;7619;48.562;8.910;2024-02-15T01:37:27;3.43;;;2.50;;
15043;SDS011;7619;48.562;8.910;2024-02-15T01:39:55;7.40;;;2.73;;
15043;SDS011;7619;48.562;8.910;2024-02-15T01:42:23;4.47;;;2.60;;
15043;SDS011;7619;48.562;8.910;2024-02-15T01:44:51;2.90;;;2.17;;
15043;SDS011;7619;48.562;8.910;2024-02-15T01:47:19;5.57;;;2.30;;
15043;SDS011;7619;48.562;8.910;2024-02-15T01:49:48;2.93;;;2.20;;
15043;SDS011;7619;48.562;8.910;2024-02-15T01:52:16;2.83;;;2.10;;
15043;SDS011;7619;48.562;8.910;2024-02-15T01:54:44;3.73;;;2.50;;
15043;SDS011;7619;48.562;8.910;2024-02-15T01:57:13;3.90;;;2.20;;
15043;SDS011;7619;48.562;8.910;2024-02-15T01:59:41;3.30;;;2.37;;
15043;SDS011;7619;48.562;8.910;2024-02-15T02:02:10;2.40;;;2.20;;
15043;SDS011;7619;48.562;8.910;2024-02-15T02:04:38;4.67;;;2.20;;
15043;SDS011;7619;48.562;8.910;2024-02-15T02:07:07;2.53;;;2.00;;
15043;SDS011;7619;48.562;8.910;2024-02-15T02:09:35;2.60;;;1.90;;
15043;SDS011;7619;48.562;8.910;2024-02-15T02:12:04;2.47;;;2.10;;
15043;SDS011;7619;48.562;8.910;2024-02-15T02:14:32;2.20;;;1.80;;
15043;SDS011;7619;48.562;8.910;2024-02-15T02:17:10;3.10;;;2.27;;
15043;SDS011;7619;48.562;8.910;2024-02-15T02:19:41;2.70;;;2.27;;
15043;SDS011;7619;48.562;8.910;2024-02-15T02:22:09;3.23;;;2.37;;
15043;SDS011;7619;48.562;8.910;2024-02-15T02:27:10;3.60;;;3.30;;
15043;SDS011;7619;48.562;8.910;2024-02-15T02:29:42;5.50;;;3.37;;
15043;SDS011;7619;48.562;8.910;2024-02-15T02:32:12;4.83;;;2.90;;
15043;SDS011;7619;48.562;8.910;2024-02-15T02:34:40;3.20;;;2.50;;
15043;SDS011;7619;48.562;8.910;2024-02-15T02:37:08;5.57;;;2.50;;
15043;SDS011;7619;48.562;8.910;2024-02-15T02:39:36;4.77;;;2.33;;
15043;SDS011;7619;48.562;8.910;2024-02-15T02:42:04;2.50;;;2.20;;
15043;SDS011;7619;48.562;8.910;2024-02-15T02:44:32;4.93;;;2.20;;
15043;SDS011;7619;48.562;8.910;2024-02-15T02:47:01;2.73;;;2.40;;
15043;SDS011;7619;48.562;8.910;2024-02-15T02:49:29;3.67;;;2.23;;
15043;SDS011;7619;48.562;8.910;2024-02-15T02:51:57;2.63;;;2.17;;
15043;SDS011;7619;48.562;8.910;2024-02-15T02:54:25;2.53;;;2.30;;
15043;SDS011;7619;48.562;8.910;2024-02-15T02:56:53;2.47;;;2.20;;
15043;SDS011;7619;48.562;8.910;2024-02-15T02:59:21;3.00;;;2.07;;
15043;SDS011;7619;48.562;8.910;2024-02-15T03:01:49;4.10;;;2.80;;
15043;SDS011;7619;48.562;8.910;2024-02-15T03:04:17;2.50;;;2.30;;
15043;SDS011;7619;48.562;8.910;2024-02-15T03:06:45;3.00;;;2.60;;
15043;SDS011;7619;48.562;8.910;2024-02-15T03:09:14;4.47;;;2.50;;
15043;SDS011;7619;48.562;8.910;2024-02-15T03:11:42;5.37;;;2.40;;
15043;SDS011;7619;48.562;8.910;2024-02-15T03:14:10;3.37;;;2.47;;
15043;SDS011;7619;48.562;8.910;2024-02-15T03:16:39;2.97;;;2.40;;
15043;SDS011;7619;48.562;8.910;2024-02-15T03:19:07;2.87;;;2.60;;
15043;SDS011;7619;48.562;8.910;2024-02-15T03:21:37;5.07;;;3.00;;
15043;SDS011;7619;48.562;8.910;2024-02-15T03:24:05;6.20;;;3.03;;
15043;SDS011;7619;48.562;8.910;2024-02-15T03:26:34;3.40;;;2.90;;
15043;SDS011;7619;48.562;8.910;2024-02-15T03:29:03;5.37;;;2.53;;
15043;SDS011;7619;48.562;8.910;2024-02-15T03:31:31;3.10;;;2.23;;
15043;SDS011;7619;48.562;8.910;2024-02-15T03:36:48;3.07;;;2.70;;
15043;SDS011;7619;48.562;8.910;2024-02-15T03:39:18;3.57;;;2.40;;
15043;SDS011;7619;48.562;8.910;2024-02-15T03:41:46;3.07;;;2.70;;
15043;SDS011;7619;48.562;8.910;2024-02-15T03:44:14;4.07;;;3.10;;
15043;SDS011;7619;48.562;8.910;2024-02-15T03:46:44;3.17;;;2.27;;
15043;SDS011;7619;48.562;8.910;2024-02-15T03:49:14;3.93;;;3.47;;
15043;SDS011;7619;48.562;8.910;2024-02-15T03:51:42;3.63;;;2.93;;
15043;SDS011;7619;48.562;8.910;2024-02-15T03:54:11;3.03;;;2.70;;
15043;SDS011;7619;48.562;8.910;2024-02-15T03:56:46;2.83;;;2.63;;
15043;SDS011;7619;48.562;8.910;2024-02-15T03:59:16;3.03;;;2.83;;
15043;SDS011;7619;48.562;8.910;2024-02-15T04:01:44;3.37;;;2.70;;
15043;SDS011;7619;48.562;8.910;2024-02-15T04:04:13;3.17;;;2.83;;
15043;SDS011;7619;48.562;8.910;2024-02-15T04:06:42;3.70;;;2.63;;
15043;SDS011;7619;48.562;8.910;2024-02-15T04:09:10;4.77;;;3.00;;
15043;SDS011;7619;48.562;8.910;2024-02-15T04:11:38;4.57;;;3.47;;
15043;SDS011;7619;48.562;8.910;2024-02-15T04:14:06;4.60;;;2.83;;
15043;SDS011;7619;48.562;8.910;2024-02-15T04:16:34;3.60;;;3.00;;
15043;SDS011;7619;48.562;8.910;2024-02-15T04:19:02;5.37;;;3.37;;
15043;SDS011;7619;48.562;8.910;2024-02-15T04:21:31;2.77;;;2.57;;
15043;SDS011;7619;48.562;8.910;2024-02-15T04:24:00;4.90;;;2.50;;
15043;SDS011;7619;48.562;8.910;2024-02-15T04:26:28;3.30;;;2.80;;
15043;SDS011;7619;48.562;8.910;2024-02-15T04:28:57;3.93;;;2.87;;
15043;SDS011;7619;48.562;8.910;2024-02-15T04:31:25;3.30;;;2.73;;
15043;SDS011;7619;48.562;8.910;2024-02-15T04:33:53;3.73;;;2.80;;
15043;SDS011;7619;48.562;8.910;2024-02-15T04:36:21;3.40;;;3.07;;
15043;SDS011;7619;48.562;8.910;2024-02-15T04:38:51;4.13;;;2.73;;
15043;SDS011;7619;48.562;8.910;2024-02-15T04:41:20;3.23;;;2.53;;
15043;SDS011;7619;48.562;8.910;2024-02-15T04:43:50;4.03;;;2.50;;
15043;SDS011;7619;48.562;8.910;2024-02-15T04:46:18;3.47;;;3.00;;
15043;SDS011;7619;48.562;8.910;2024-02-15T04:48:48;5.90;;;2.77;;
15043;SDS011;7619;48.562;8.910;2024-02-15T04:51:16;3.00;;;2.70;;
15043;SDS011;7619;48.562;8.910;2024-02-15T04:53:46;2.97;;;2.67;;
15043;SDS011;7619;48.562;8.910;2024-02-15T04:56:15;2.67;;;2.47;;
15043;SDS011;7619;48.562;8.910;2024-02-15T04:58:43;3.23;;;2.90;;
15043;SDS011;7619;48.562;8.910;2024-02-15T05:01:13;3.50;;;2.60;;
15043;SDS011;7619;48.562;8.910;2024-02-15T05:03:42;3.87;;;2.83;;
15043;SDS011;7619;48.562;8.910;2024-02-15T05:06:10;4.03;;;2.70;;
15043;SDS011;7619;48.562;8.910;2024-02-15T05:08:39;4.00;;;2.50;;
15043;SDS011;7619;48.562;8.910;2024-02-15T05:11:09;3.43;;;2.80;;
15043;SDS011;7619;48.562;8.910;2024-02-15T05:13:41;2.83;;;2.30;;
15043;SDS011;7619;48.562;8.910;2024-02-15T05:16:09;3.03;;;2.73;;
15043;SDS011;7619;48.562;8.910;2024-02-15T05:18:37;4.23;;;3.20;;
15043;SDS011;7619;48.562;8.910;2024-02-15T05:21:06;4.57;;;2.87;;
15043;SDS011;7619;48.562;8.910;2024-02-15T05:23:36;3.20;;;2.70;;
15043;SDS011;7619;48.562;8.910;2024-02-15T05:26:06;15.40;;;9.00;;
15043;SDS011;7619;48.562;8.910;2024-02-15T05:28:34;69.37;;;39.33;;
15043;SDS011;7619;48.562;8.910;2024-02-15T05:31:09;26.57;;;16.83;;
15043;SDS011;7619;48.562;8.910;2024-02-15T05:33:38;15.53;;;8.47;;
15043;SDS011;7619;48.562;8.910;2024-02-15T05:36:07;7.07;;;5.30;;
15043;SDS011;7619;48.562;8.910;2024-02-15T05:38:36;5.77;;;4.40;;
15043;SDS011;7619;48.562;8.910;2024-02-15T05:41:04;7.33;;;4.20;;
15043;SDS011;7619;48.562;8.910;2024-02-15T05:43:33;4.37;;;3.63;;
15043;SDS011;7619;48.562;8.910;2024-02-15T05:46:03;3.67;;;3.07;;
15043;SDS011;7619;48.562;8.910;2024-02-15T05:48:33;3.30;;;3.00;;
15043;SDS011;7619;48.562;8.910;2024-02-15T05:51:02;2.80;;;2.60;;
15043;SDS011;7619;48.562;8.910;2024-02-15T05:53:31;4.60;;;2.90;;
15043;SDS011;7619;48.562;8.910;2024-02-15T05:56:02;6.97;;;2.93;;
15043;SDS011;7619;48.562;8.910;2024-02-15T05:58:31;3.50;;;3.07;;
15043;SDS011;7619;48.562;8.910;2024-02-15T06:00:59;6.97;;;3.37;;
15043;SDS011;7619;48.562;8.910;2024-02-15T06:03:28;9.07;;;3.57;;
15043;SDS011;7619;48.562;8.910;2024-02-15T06:05:58;4.83;;;4.17;;
15043;SDS011;7619;48.562;8.910;2024-02-15T06:08:28;8.63;;;6.87;;
15043;SDS011;7619;48.562;8.910;2024-02-15T06:10:57;10.67;;;8.23;;
15043;SDS011;7619;48.562;8.910;2024-02-15T06:13:25;8.60;;;6.13;;
15043;SDS011;7619;48.562;8.910;2024-02-15T06:15:53;6.57;;;5.03;;
15043;SDS011;7619;48.562;8.910;2024-02-15T06:18:22;7.30;;;4.50;;
15043;SDS011;7619;48.562;8.910;2024-02-15T06:20:51;8.37;;;6.37;;
15043;SDS011;7619;48.562;8.910;2024-02-15T06:23:19;6.17;;;4.30;;
15043;SDS011;7619;48.562;8.910;2024-02-15T06:25:47;7.23;;;4.03;;
15043;SDS011;7619;48.562;8.910;2024-02-15T06:28:15;5.53;;;4.60;;
15043;SDS011;7619;48.562;8.910;2024-02-15T06:30:48;5.80;;;5.03;;
15043;SDS011;7619;48.562;8.910;2024-02-15T06:33:34;6.90;;;5.90;;
15043;SDS011;7619;48.562;8.910;2024-02-15T06:36:20;7.17;;;5.50;;
15043;SDS011;7619;48.562;8.910;2024-02-15T06:41:42;6.40;;;5.37;;
15043;SDS011;7619;48.562;8.910;2024-02-15T06:44:10;7.27;;;4.97;;
15043;SDS011;7619;48.562;8.910;2024-02-15T06:46:38;4.70;;;4.20;;
15043;SDS011;7619;48.562;8.910;2024-02-15T06:49:08;5.70;;;4.60;;
15043;SDS011;7619;48.562;8.910;2024-02-15T06:51:36;6.63;;;4.50;;
15043;SDS011;7619;48.562;8.910;2024-02-15T06:54:04;9.10;;;4.80;;
15043;SDS011;7619;48.562;8.910;2024-02-15T06:56:36;8.17;;;5.27;;
15043;SDS011;7619;48.562;8.910;2024-02-15T06:59:05;5.67;;;5.17;;
15043;SDS011;7619;48.562;8.910;2024-02-15T07:01:34;10.63;;;4.57;;
15043;SDS011;7619;48.562;8.910;2024-02-15T07:04:02;6.43;;;4.97;;
15043;SDS011;7619;48.562;8.910;2024-02-15T07:06:30;8.47;;;6.00;;
15043;SDS011;7619;48.562;8.910;2024-02-15T07:08:58;9.47;;;5.40;;
15043;SDS011;7619;48.562;8.910;2024-02-15T07:11:26;6.37;;;5.30;;
15043;SDS011;7619;48.562;8.910;2024-02-15T07:13:55;12.17;;;6.70;;
15043;SDS011;7619;48.562;8.910;2024-02-15T07:16:23;14.27;;;6.60;;
15043;SDS011;7619;48.562;8.910;2024-02-15T07:18:51;10.57;;;7.13;;
15043;SDS011;7619;48.562;8.910;2024-02-15T07:21:20;8.67;;;5.97;;
15043;SDS011;7619;48.562;8.910;2024-02-15T07:23:50;8.17;;;5.20;;
15043;SDS011;7619;48.562;8.910;2024-02-15T07:26:18;7.43;;;5.60;;
15043;SDS011;7619;48.562;8.910;2024-02-15T07:28:47;13.63;;;6.53;;
15043;SDS011;7619;48.562;8.910;2024-02-15T07:31:16;6.37;;;5.50;;
15043;SDS011;7619;48.562;8.910;2024-02-15T07:33:44;8.20;;;5.27;;
15043;SDS011;7619;48.562;8.910;2024-02-15T07:36:12;6.73;;;5.07;;
15043;SDS011;7619;48.562;8.910;2024-02-15T07:38:40;6.50;;;4.73;;
15043;SDS011;7619;48.562;8.910;2024-02-15T07:41:08;5.50;;;4.27;;
15043;SDS011;7619;48.562;8.910;2024-02-15T07:43:37;5.37;;;4.03;;
15043;SDS011;7619;48.562;8.910;2024-02-15T07:46:06;5.23;;;4.70;;
15043;SDS011;7619;48.562;8.910;2024-02-15T07:48:34;14.27;;;8.67;;
15043;SDS011;7619;48.562;8.910;2024-02-15T07:51:02;7.43;;;5.80;;
15043;SDS011;7619;48.562;8.910;2024-02-15T07:53:32;10.77;;;6.23;;
15043;SDS011;7619;48.562;8.910;2024-02-15T07:56:01;12.63;;;4.77;;
15043;SDS011;7619;48.562;8.910;2024-02-15T07:58:29;8.27;;;4.70;;
15043;SDS011;7619;48.562;8.910;2024-02-15T08:00:58;7.50;;;4.60;;
15043;SDS011;7619;48.562;8.910;2024-02-15T08:03:26;6.10;;;4.37;;
15043;SDS011;7619;48.562;8.910;2024-02-15T08:05:56;8.20;;;4.07;;
15043;SDS011;7619;48.562;8.910;2024-02-15T08:08:24;5.97;;;3.53;;
15043;SDS011;7619;48.562;8.910;2024-02-15T08:10:52;9.27;;;2.87;;
15043;SDS011;7619;48.562;8.910;2024-02-15T08:13:20;3.47;;;2.90;;
15043;SDS011;7619;48.562;8.910;2024-02-15T08:15:51;4.70;;;2.67;;
15043;SDS011;7619;48.562;8.910;2024-02-15T08:18:19;3.97;;;2.70;;
15043;SDS011;7619;48.562;8.910;2024-02-15T08:20:47;4.83;;;3.37;;
15043;SDS011;7619;48.562;8.910;2024-02-15T08:23:15;4.07;;;3.13;;
15043;SDS011;7619;48.562;8.910;2024-02-15T08:25:44;4.17;;;2.87;;
15043;SDS011;7619;48.562;8.910;2024-02-15T08:28:12;6.13;;;3.33;;
15043;SDS011;7619;48.562;8.910;2024-02-15T08:30:40;3.90;;;3.50;;
15043;SDS011;7619;48.562;8.910;2024-02-15T08:33:08;5.80;;;3.50;;
15043;SDS011;7619;48.562;8.910;2024-02-15T08:35:38;5.13;;;3.30;;
15043;SDS011;7619;48.562;8.910;2024-02-15T08:38:08;5.23;;;3.87;;
15043;SDS011;7619;48.562;8.910;2024-02-15T08:40:36;5.93;;;4.10;;
15043;SDS011;7619;48.562;8.910;2024-02-15T08:43:04;5.63;;;5.03;;
15043;SDS011;7619;48.562;8.910;2024-02-15T08:45:33;7.87;;;4.93;;
15043;SDS011;7619;48.562;8.910;2024-02-15T08:48:02;5.17;;;3.90;;
15043;SDS011;7619;48.562;8.910;2024-02-15T08:50:31;8.13;;;4.03;;
15043;SDS011;7619;48.562;8.910;2024-02-15T08:52:59;9.30;;;4.10;;
15043;SDS011;7619;48.562;8.910;2024-02-15T08:55:28;5.57;;;4.27;;
15043;SDS011;7619;48.562;8.910;2024-02-15T08:57:56;7.90;;;4.27;;
15043;SDS011;7619;48.562;8.910;2024-02-15T09:00:24;8.57;;;4.63;;
15043;SDS011;7619;48.562;8.910;2024-02-15T09:02:53;6.10;;;4.20;;
15043;SDS011;7619;48.562;8.910;2024-02-15T09:05:22;6.50;;;5.20;;
15043;SDS011;7619;48.562;8.910;2024-02-15T09:07:51;5.37;;;4.27;;
15043;SDS011;7619;48.562;8.910;2024-02-15T09:10:19;5.77;;;4.50;;
15043;SDS011;7619;48.562;8.910;2024-02-15T09:12:49;6.57;;;4.17;;
15043;SDS011;7619;48.562;8.910;2024-02-15T09:15:17;5.30;;;3.90;;
15043;SDS011;7619;48.562;8.910;2024-02-15T09:17:45;8.10;;;4.43;;
15043;SDS011;7619;48.562;8.910;2024-02-15T09:20:14;4.57;;;3.87;;
15043;SDS011;7619;48.562;8.910;2024-02-15T09:22:42;4.90;;;3.60;;
15043;SDS011;7619;48.562;8.910;2024-02-15T09:25:12;5.60;;;4.00;;
15043;SDS011;7619;48.562;8.910;2024-02-15T09:27:41;9.90;;;4.10;;
15043;SDS011;7619;48.562;8.910;2024-02-15T09:30:10;5.07;;;3.70;;
15043;SDS011;7619;48.562;8.910;2024-02-15T09:32:39;4.97;;;3.73;;
15043;SDS011;7619;48.562;8.910;2024-02-15T09:35:08;7.13;;;4.37;;
15043;SDS011;7619;48.562;8.910;2024-02-15T09:37:36;5.53;;;4.00;;
15043;SDS011;7619;48.562;8.910;2024-02-15T09:40:10;6.07;;;4.63;;
15043;SDS011;7619;48.562;8.910;2024-02-15T09:42:38;4.17;;;3.73;;
15043;SDS011;7619;48.562;8.910;2024-02-15T09:45:07;6.50;;;3.60;;
15043;SDS011;7619;48.562;8.910;2024-02-15T09:47:38;8.23;;;3.60;;
15043;SDS011;7619;48.562;8.910;2024-02-15T09:50:07;4.40;;;3.57;;
15043;SDS011;7619;48.562;8.910;2024-02-15T09:52:38;5.80;;;3.53;;
15043;SDS011;7619;48.562;8.910;2024-02-15T09:55:08;4.40;;;3.20;;
15043;SDS011;7619;48.562;8.910;2024-02-15T09:57:38;5.67;;;3.10;;
15043;SDS011;7619;48.562;8.910;2024-02-15T10:00:08;4.53;;;3.47;;
15043;SDS011;7619;48.562;8.910;2024-02-15T10:02:38;3.27;;;2.80;;
15043;SDS011;7619;48.562;8.910;2024-02-15T10:07:42;3.43;;;2.80;;
15043;SDS011;7619;48.562;8.910;2024-02-15T10:10:15;7.90;;;3.30;;
15043;SDS011;7619;48.562;8.910;2024-02-15T10:12:44;4.10;;;3.23;;
15043;SDS011;7619;48.562;8.910;2024-02-15T10:15:22;5.80;;;3.10;;
15043;SDS011;7619;48.562;8.910;2024-02-15T10:17:54;4.87;;;3.40;;
15043;SDS011;7619;48.562;8.910;2024-02-15T10:20:22;4.37;;;3.00;;
15043;SDS011;7619;48.562;8.910;2024-02-15T10:22:53;4.70;;;3.17;;
15043;SDS011;7619;48.562;8.910;2024-02-15T10:25:22;2.90;;;2.60;;
15043;SDS011;7619;48.562;8.910;2024-02-15T10:27:50;5.03;;;2.83;;
15043;SDS011;7619;48.562;8.910;2024-02-15T10:30:18;3.27;;;2.90;;
15043;SDS011;7619;48.562;8.910;2024-02-15T10:32:47;5.17;;;2.70;;
15043;SDS011;7619;48.562;8.910;2024-02-15T10:35:21;3.07;;;2.63;;
15043;SDS011;7619;48.562;8.910;2024-02-15T10:37:50;5.97;;;2.70;;
15043;SDS011;7619;48.562;8.910;2024-02-15T10:40:20;3.37;;;2.20;;
15043;SDS011;7619;48.562;8.910;2024-02-15T10:42:48;4.13;;;2.63;;
15043;SDS011;7619;48.562;8.910;2024-02-15T10:45:18;4.67;;;2.40;;
15043;SDS011;7619;48.562;8.910;2024-02-15T10:47:47;4.37;;;2.77;;
15043;SDS011;7619;48.562;8.910;2024-02-15T10:50:15;2.50;;;2.30;;
15043;SDS011;7619;48.562;8.910;2024-02-15T10:52:54;2.90;;;2.17;;
15043;SDS011;7619;48.562;8.910;2024-02-15T10:55:14;5.00;;;2.60;;
15043;SDS011;7619;48.562;8.910;2024-02-15T10:57:45;2.70;;;2.47;;
15043;SDS011;7619;48.562;8.910;2024-02-15T11:00:15;2.80;;;1.90;;
15043;SDS011;7619;48.562;8.910;2024-02-15T11:02:50;1.90;;;1.67;;
15043;SDS011;7619;48.562;8.910;2024-02-15T11:05:19;2.10;;;1.70;;
15043;SDS011;7619;48.562;8.910;2024-02-15T11:07:49;5.67;;;2.17;;
15043;SDS011;7619;48.562;8.910;2024-02-15T11:10:18;2.00;;;1.80;;
15043;SDS011;7619;48.562;8.910;2024-02-15T11:12:46;3.33;;;2.03;;
15043;SDS011;7619;48.562;8.910;2024-02-15T11:15:26;1.83;;;0.97;;
15043;SDS011;7619;48.562;8.910;2024-02-15T11:17:55;2.80;;;1.40;;
15043;SDS011;7619;48.562;8.910;2024-02-15T11:23:11;1.37;;;1.00;;
15043;SDS011;7619;48.562;8.910;2024-02-15T11:25:39;2.80;;;1.07;;
15043;SDS011;7619;48.562;8.910;2024-02-15T11:28:35;4.03;;;1.30;;
15043;SDS011;7619;48.562;8.910;2024-02-15T11:31:04;2.10;;;1.07;;
15043;SDS011;7619;48.562;8.910;2024-02-15T11:33:33;2.30;;;1.17;;
15043;SDS011;7619;48.562;8.910;2024-02-15T11:36:02;4.57;;;1.50;;
15043;SDS011;7619;48.562;8.910;2024-02-15T11:38:32;2.03;;;1.27;;
15043;SDS011;7619;48.562;8.910;2024-02-15T11:41:01;2.30;;;1.00;;
15043;SDS011;7619;48.562;8.910;2024-02-15T11:43:46;2.57;;;1.20;;
15043;SDS011;7619;48.562;8.910;2024-02-15T11:46:16;0.63;;;0.63;;
15043;SDS011;7619;48.562;8.910;2024-02-15T11:48:45;3.40;;;1.13;;
15043;SDS011;7619;48.562;8.910;2024-02-15T11:51:24;1.27;;;0.90;;
15043;SDS011;7619;48.562;8.910;2024-02-15T11:54:02;1.47;;;0.87;;
15043;SDS011;7619;48.562;8.910;2024-02-15T11:56:33;1.20;;;0.87;;
15043;SDS011;7619;48.562;8.910;2024-02-15T11:59:04;2.30;;;1.17;;
15043;SDS011;7619;48.562;8.910;2024-02-15T12:01:33;1.97;;;1.40;;
15043;SDS011;7619;48.562;8.910;2024-02-15T12:04:30;1.30;;;0.97;;
15043;SDS011;7619;48.562;8.910;2024-02-15T12:07:16;4.50;;;1.33;;
15043;SDS011;7619;48.562;8.910;2024-02-15T12:10:02;2.80;;;1.00;;
15043;SDS011;7619;48.562;8.910;2024-02-15T12:12:51;4.13;;;1.93;;
15043;SDS011;7619;48.562;8.910;2024-02-15T12:15:56;1.60;;;0.97;;
15043;SDS011;7619;48.562;8.910;2024-02-15T12:18:42;2.57;;;1.20;;
15043;SDS011;7619;48.562;8.910;2024-02-15T12:21:12;2.07;;;1.30;;
15043;SDS011;7619;48.562;8.910;2024-02-15T12:23:41;2.47;;;1.37;;
15043;SDS011;7619;48.562;8.910;2024-02-15T12:26:09;2.20;;;1.17;;
15043;SDS011;7619;48.562;8.910;2024-02-15T12:28:37;3.90;;;1.43;;
15043;SDS011;7619;48.562;8.910;2024-02-15T12:31:06;1.50;;;1.00;;
15043;SDS011;7619;48.562;8.910;2024-02-15T12:33:38;2.87;;;1.60;;
15043;SDS011;7619;48.562;8.910;2024-02-15T12:36:08;1.57;;;1.40;;
15043;SDS011;7619;48.562;8.910;2024-02-15T12:38:37;4.10;;;1.13;;
15043;SDS011;7619;48.562;8.910;2024-02-15T12:41:06;2.00;;;1.63;;
15043;SDS011;7619;48.562;8.910;2024-02-15T12:43:35;3.40;;;1.40;;
15043;SDS011;7619;48.562;8.910;2024-02-15T12:46:03;2.60;;;1.40;;
15043;SDS011;7619;48.562;8.910;2024-02-15T12:48:32;2.03;;;1.30;;
15043;SDS011;7619;48.562;8.910;2024-02-15T12:51:12;3.90;;;1.73;;
15043;SDS011;7619;48.562;8.910;2024-02-15T12:56:20;2.90;;;1.27;;
15043;SDS011;7619;48.562;8.910;2024-02-15T12:58:50;5.80;;;1.90;;
15043;SDS011;7619;48.562;8.910;2024-02-15T13:01:18;1.80;;;1.40;;
15043;SDS011;7619;48.562;8.910;2024-02-15T13:03:47;2.87;;;1.30;;
15043;SDS011;7619;48.562;8.910;2024-02-15T13:06:16;1.47;;;1.10;;
15043;SDS011;7619;48.562;8.910;2024-02-15T13:08:45;3.23;;;1.50;;
15043;SDS011;7619;48.562;8.910;2024-02-15T13:11:15;1.53;;;1.13;;
15043;SDS011;7619;48.562;8.910;2024-02-15T13:13:43;5.47;;;1.83;;
15043;SDS011;7619;48.562;8.910;2024-02-15T13:16:12;1.67;;;1.20;;
15043;SDS011;7619;48.562;8.910;2024-02-15T13:18:40;5.10;;;1.83;;
15043;SDS011;7619;48.562;8.910;2024-02-15T13:21:10;2.57;;;1.53;;
15043;SDS011;7619;48.562;8.910;2024-02-15T13:23:38;2.53;;;1.33;;
15043;SDS011;7619;48.562;8.910;2024-02-15T13:26:06;2.63;;;1.43;;
15043;SDS011;7619;48.562;8.910;2024-02-15T13:28:34;4.63;;;1.50;;
15043;SDS011;7619;48.562;8.910;2024-02-15T13:31:03;1.97;;;1.60;;
15043;SDS011;7619;48.562;8.910;2024-02-15T13:33:31;2.87;;;1.60;;
15043;SDS011;7619;48.562;8.910;2024-02-15T13:35:59;3.00;;;1.60;;
15043;SDS011;7619;48.562;8.910;2024-02-15T13:38:28;1.67;;;1.43;;
15043;SDS011;7619;48.562;8.910;2024-02-15T13:40:57;3.33;;;1.47;;
15043;SDS011;7619;48.562;8.910;2024-02-15T13:43:26;2.03;;;1.30;;
15043;SDS011;7619;48.562;8.910;2024-02-15T13:45:55;2.33;;;1.40;;
15043;SDS011;7619;48.562;8.910;2024-02-15T13:48:23;2.50;;;1.40;;
15043;SDS011;7619;48.562;8.910;2024-02-15T13:50:51;3.50;;;1.30;;
15043;SDS011;7619;48.562;8.910;2024-02-15T13:53:20;2.10;;;1.47;;
15043;SDS011;7619;48.562;8.910;2024-02-15T13:55:48;1.90;;;1.23;;
15043;SDS011;7619;48.562;8.910;2024-02-15T13:58:18;1.20;;;1.10;;
15043;SDS011;7619;48.562;8.910;2024-02-15T14:00:46;1.63;;;1.07;;
15043;SDS011;7619;48.562;8.910;2024-02-15T14:03:15;2.80;;;1.13;;
15043;SDS011;7619;48.562;8.910;2024-02-15T14:05:45;1.73;;;1.43;;
15043;SDS011;7619;48.562;8.910;2024-02-15T14:08:14;2.47;;;1.33;;
15043;SDS011;7619;48.562;8.910;2024-02-15T14:10:42;4.00;;;1.53;;
15043;SDS011;7619;48.562;8.910;2024-02-15T14:13:11;3.30;;;1.27;;
15043;SDS011;7619;48.562;8.910;2024-02-15T14:15:41;1.73;;;1.17;;
15043;SDS011;7619;48.562;8.910;2024-02-15T14:18:10;2.17;;;1.20;;
15043;SDS011;7619;48.562;8.910;2024-02-15T14:20:40;2.20;;;1.20;;
15043;SDS011;7619;48.562;8.910;2024-02-15T14:23:09;1.20;;;1.10;;
15043;SDS011;7619;48.562;8.910;2024-02-15T14:25:39;2.27;;;1.20;;
15043;SDS011;7619;48.562;8.910;2024-02-15T14:28:08;1.37;;;1.10;;
15043;SDS011;7619;48.562;8.910;2024-02-15T14:30:36;1.40;;;1.10;;
15043;SDS011;7619;48.562;8.910;2024-02-15T14:33:21;3.27;;;1.23;;
15043;SDS011;7619;48.562;8.910;2024-02-15T14:35:51;2.73;;;1.00;;
15043;SDS011;7619;48.562;8.910;2024-02-15T14:38:22;4.17;;;1.17;;
15043;SDS011;7619;48.562;8.910;2024-02-15T14:43:43;2.73;;;1.67;;
15043;SDS011;7619;48.562;8.910;2024-02-15T14:46:13;1.73;;;1.33;;
15043;SDS011;7619;48.562;8.910;2024-02-15T14:48:42;2.40;;;1.30;;
15043;SDS011;7619;48.562;8.910;2024-02-15T14:51:15;5.60;;;1.67;;
15043;SDS011;7619;48.562;8.910;2024-02-15T14:53:44;2.60;;;1.43;;
15043;SDS011;7619;48.562;8.910;2024-02-15T14:56:12;2.23;;;1.50;;
15043;SDS011;7619;48.562;8.910;2024-02-15T14:58:43;2.40;;;1.53;;
15043;SDS011;7619;48.562;8.910;2024-02-15T15:01:12;3.07;;;0.97;;
15043;SDS011;7619;48.562;8.910;2024-02-15T15:03:40;4.20;;;1.47;;
15043;SDS011;7619;48.562;8.910;2024-02-15T15:06:10;1.20;;;1.10;;
15043;SDS011;7619;48.562;8.910;2024-02-15T15:08:55;2.90;;;1.20;;
15043;SDS011;7619;48.562;8.910;2024-02-15T15:11:41;2.17;;;1.33;;
15043;SDS011;7619;48.562;8.910;2024-02-15T15:14:27;2.53;;;1.40;;
15043;SDS011;7619;48.562;8.910;2024-02-15T15:16:55;4.73;;;1.10;;
15043;SDS011;7619;48.562;8.910;2024-02-15T15:19:23;3.53;;;1.50;;
15043;SDS011;7619;48.562;8.910;2024-02-15T15:21:52;1.63;;;1.13;;
15043;SDS011;7619;48.562;8.910;2024-02-15T15:24:20;1.50;;;1.07;;
15043;SDS011;7619;48.562;8.910;2024-02-15T15:26:48;3.73;;;1.60;;
15043;SDS011;7619;48.562;8.910;2024-02-15T15:29:16;1.37;;;1.20;;
15043;SDS011;7619;48.562;8.910;2024-02-15T15:31:45;2.67;;;1.33;;
15043;SDS011;7619;48.562;8.910;2024-02-15T15:34:13;4.30;;;1.27;;